Time;durP1;ratioP1;P1;durP2;ratioP2;P2;SDS_P1;SDS_P2;PMS_P1;PMS_P2;Temp;Humidity;BMP_temperature;BMP_pressure;BME280_temperature;BME280_humidity;BME280_pressure;Samples;Min_cycle;Max_cycle;Signal;HPM_P1;HPM_P2
2022/08/06 00:02:20;;;;;;;7.63;4.93;;;;;;;21.57;63.38;94699.69;5012948;28;20276;-77
2022/08/06 00:04:46;;;;;;;5.97;5.00;;;;;;;21.55;63.78;94704.53;5008319;28;20173;-77
2022/08/06 00:07:12;;;;;;;10.93;5.30;;;;;;;21.40;63.89;94694.75;5011840;28;20176;-77
2022/08/06 00:09:38;;;;;;;10.73;5.50;;;;;;;21.27;64.17;94675.88;5013980;28;20242;-77
2022/08/06 00:12:05;;;;;;;8.18;5.22;;;;;;;21.40;64.09;94702.78;5005739;28;20286;-77
2022/08/06 00:14:32;;;;;;;8.50;5.15;;;;;;;21.37;64.78;94705.22;5005741;28;20196;-77
2022/08/06 00:16:57;;;;;;;6.65;5.10;;;;;;;21.36;64.91;94707.09;4999647;28;20208;-77
2022/08/06 00:19:23;;;;;;;7.20;5.15;;;;;;;21.34;64.46;94714.63;5012082;28;20172;-77
2022/08/06 00:21:49;;;;;;;7.80;5.18;;;;;;;21.33;64.51;94710.34;5014135;28;20172;-77
2022/08/06 00:24:15;;;;;;;6.95;4.82;;;;;;;21.24;64.46;94701.34;5005878;28;20184;-77
2022/08/06 00:26:41;;;;;;;8.02;5.20;;;;;;;21.27;64.73;94716.84;5014137;28;20188;-77
2022/08/06 00:29:07;;;;;;;6.65;4.90;;;;;;;21.15;64.77;94694.94;5013844;28;20173;-77
2022/08/06 00:31:33;;;;;;;6.90;5.43;;;;;;;21.23;65.00;94718.47;5013905;28;20695;-77
2022/08/06 00:34:01;;;;;;;7.30;5.15;;;;;;;21.09;65.12;94698.75;5013303;28;20181;-77
2022/08/06 01:10:05;;;;;;;7.30;5.70;;;;;;;20.83;65.79;94697.34;4993096;28;20287;-77
2022/08/06 01:12:31;;;;;;;12.90;6.63;;;;;;;20.94;66.00;94722.94;4994661;28;20195;-77
2022/08/06 01:14:56;;;;;;;16.10;7.10;;;;;;;20.82;66.06;94714.47;5013017;28;20197;-77
2022/08/06 01:17:30;;;;;;;9.05;5.90;;;;;;;20.73;66.57;94716.94;5004730;28;20183;-77
2022/08/06 01:20:23;;;;;;;15.50;7.25;;;;;;;20.70;66.87;94718.28;5012988;28;20179;-77
2022/08/06 01:23:00;;;;;;;15.60;6.05;;;;;;;20.70;66.87;94704.09;5001355;28;20237;-77
2022/08/06 01:25:44;;;;;;;20.85;7.32;;;;;;;20.71;66.84;94711.84;4993077;28;20177;-77
2022/08/06 01:28:16;;;;;;;19.17;5.68;;;;;;;20.69;67.00;94714.00;4993421;28;20181;-77
2022/08/06 01:30:54;;;;;;;7.35;5.47;;;;;;;20.62;66.64;94708.16;5001368;28;20195;-77
2022/08/06 01:33:33;;;;;;;10.30;5.95;;;;;;;20.60;66.10;94709.50;4998510;28;20169;-76
2022/08/06 01:36:05;;;;;;;9.52;5.50;;;;;;;20.54;66.22;94713.31;5012407;28;20204;-76
2022/08/06 01:38:50;;;;;;;11.07;5.55;;;;;;;20.47;66.36;94713.63;5006214;28;20224;-76
2022/08/06 01:41:40;;;;;;;9.55;5.82;;;;;;;20.47;66.63;94704.78;4996676;28;20206;-77
2022/08/06 01:44:11;;;;;;;11.75;5.18;;;;;;;20.33;66.69;94700.00;5001927;28;20181;-77
2022/08/06 01:46:41;;;;;;;6.38;5.38;;;;;;;20.42;66.70;94705.59;4992055;28;20181;-77
2022/08/06 01:49:09;;;;;;;10.88;5.07;;;;;;;20.41;66.72;94708.56;4992971;28;20181;-77
2022/08/06 01:51:37;;;;;;;6.35;5.05;;;;;;;20.43;67.18;94709.88;4993022;28;20260;-77
2022/08/06 01:54:06;;;;;;;10.60;5.32;;;;;;;20.41;66.61;94705.91;5001450;28;20219;-77
2022/08/06 01:56:35;;;;;;;8.00;4.70;;;;;;;20.46;66.66;94706.66;5007926;28;20284;-77
2022/08/06 01:59:04;;;;;;;10.75;5.10;;;;;;;20.40;67.03;94691.72;4992576;28;20177;-77
2022/08/06 02:01:33;;;;;;;10.13;6.10;;;;;;;20.33;66.64;94677.81;5012116;28;20701;-77
2022/08/06 02:04:00;;;;;;;8.82;6.68;;;;;;;20.49;66.48;94705.31;5012079;28;20263;-76
2022/08/06 02:06:30;;;;;;;7.65;5.38;;;;;;;20.45;66.82;94698.91;5011716;28;20195;-77
2022/08/06 02:08:58;;;;;;;9.30;6.10;;;;;;;20.48;67.09;94703.72;5011921;28;20168;-77
2022/08/06 02:11:23;;;;;;;10.68;6.22;;;;;;;20.45;66.81;94696.22;5010666;28;20719;-77
2022/08/06 02:13:51;;;;;;;9.63;5.70;;;;;;;20.48;67.30;94690.34;5003594;28;20173;-77
2022/08/06 02:16:17;;;;;;;8.65;5.15;;;;;;;20.40;67.07;94669.53;5011774;28;20203;-77
2022/08/06 02:18:46;;;;;;;16.60;5.60;;;;;;;20.44;67.09;94692.75;5010755;28;20531;-77
2022/08/06 02:21:20;;;;;;;8.52;5.25;;;;;;;20.42;67.80;94694.09;5010838;28;20628;-77
2022/08/06 02:23:48;;;;;;;11.48;6.57;;;;;;;20.32;67.77;94690.38;5012154;28;20183;-76
2022/08/06 02:26:15;;;;;;;6.13;4.93;;;;;;;20.19;68.55;94671.47;5011651;28;20172;-76
2022/08/06 02:28:43;;;;;;;6.15;5.32;;;;;;;20.28;68.24;94685.88;5005673;28;20188;-76
2022/08/06 02:31:09;;;;;;;13.52;7.57;;;;;;;20.20;68.26;94675.75;5000895;28;20177;-77
2022/08/06 02:33:35;;;;;;;13.85;8.38;;;;;;;20.07;68.34;94657.63;4992062;28;20189;-76
2022/08/06 02:36:17;;;;;;;8.32;6.18;;;;;;;20.23;68.33;94680.56;4996663;28;20270;-75
2022/08/06 02:38:55;;;;;;;13.10;6.68;;;;;;;20.17;68.54;94682.44;5011164;28;20694;-77
2022/08/06 02:41:32;;;;;;;9.80;5.35;;;;;;;20.10;68.58;94683.81;4998212;28;20616;-77
2022/08/06 02:44:19;;;;;;;7.25;5.35;;;;;;;20.06;68.75;94690.78;4993396;28;20185;-77
2022/08/06 02:46:58;;;;;;;13.13;6.40;;;;;;;20.08;68.73;94683.28;4991729;28;20209;-77
2022/08/06 02:49:26;;;;;;;10.63;6.65;;;;;;;20.09;68.74;94684.88;5002004;28;20176;-76
2022/08/06 02:52:01;;;;;;;13.80;5.95;;;;;;;20.06;68.84;94680.09;5000309;28;20177;-76
2022/08/06 02:54:34;;;;;;;7.70;5.32;;;;;;;20.03;68.60;94677.97;4993264;28;20686;-76
2022/08/06 02:57:04;;;;;;;6.13;5.20;;;;;;;20.01;68.88;94680.91;5000388;28;20173;-76
2022/08/06 02:59:33;;;;;;;8.07;6.38;;;;;;;20.02;69.00;94682.50;4991431;28;20235;-76
2022/08/06 03:02:01;;;;;;;8.77;4.97;;;;;;;20.03;68.78;94689.47;4993912;28;20625;-76
2022/08/06 03:04:29;;;;;;;9.68;5.28;;;;;;;19.86;69.31;94670.28;5001655;28;20226;-77
2022/08/06 03:06:56;;;;;;;10.40;6.47;;;;;;;19.98;69.38;94692.94;5009141;28;20188;-76
2022/08/06 03:09:23;;;;;;;19.15;7.55;;;;;;;20.01;69.54;94696.13;4998176;28;20172;-76
2022/08/06 03:11:50;;;;;;;20.17;7.55;;;;;;;19.98;69.32;94690.25;5009269;28;20220;-77
2022/08/06 03:14:17;;;;;;;16.52;7.10;;;;;;;19.98;69.71;94694.03;5002524;28;20177;-77
2022/08/06 03:16:45;;;;;;;14.63;6.40;;;;;;;19.92;69.72;94699.38;5006449;28;20188;-77
2022/08/06 03:19:11;;;;;;;12.07;7.05;;;;;;;19.95;69.95;94700.72;5007507;28;20176;-77
2022/08/06 03:21:37;;;;;;;17.92;6.10;;;;;;;19.96;69.36;94695.09;5011192;28;20230;-77
2022/08/06 03:24:04;;;;;;;13.75;8.13;;;;;;;19.89;69.84;94696.47;5001167;28;20259;-77
2022/08/06 03:26:31;;;;;;;12.00;6.13;;;;;;;19.81;69.44;94684.44;4995562;28;20640;-77
2022/08/06 03:28:59;;;;;;;11.77;7.35;;;;;;;19.90;69.74;94709.53;5007318;28;20770;-77
2022/08/06 03:31:26;;;;;;;12.18;6.68;;;;;;;19.88;69.57;94697.53;5000770;28;20227;-77
2022/08/06 03:33:53;;;;;;;32.55;9.02;;;;;;;19.78;69.61;94674.31;5000185;28;20177;-77
2022/08/06 03:36:19;;;;;;;17.33;8.90;;;;;;;19.85;70.16;94696.19;4991474;28;20700;-77
2022/08/06 03:38:52;;;;;;;15.23;6.90;;;;;;;19.87;70.21;94710.09;5002451;28;20181;-77
2022/08/06 03:41:18;;;;;;;12.25;6.40;;;;;;;19.75;69.89;94685.53;4997570;28;20185;-77
2022/08/06 03:43:44;;;;;;;18.48;9.18;;;;;;;19.83;70.35;94700.22;4995666;28;20242;-77
2022/08/06 03:46:11;;;;;;;13.57;6.68;;;;;;;19.70;69.73;94682.91;5003943;28;20183;-77
2022/08/06 03:48:41;;;;;;;9.40;5.50;;;;;;;19.76;69.70;94700.50;4991277;28;20189;-75
2022/08/06 03:51:18;;;;;;;12.80;5.68;;;;;;;19.66;70.00;94681.81;5005241;28;20703;-75
2022/08/06 03:53:45;;;;;;;16.02;6.68;;;;;;;19.85;69.86;94704.22;5010062;28;20236;-75
2022/08/06 03:56:16;;;;;;;11.05;5.50;;;;;;;19.92;69.65;94703.91;4995692;28;20205;-75
2022/08/06 03:58:43;;;;;;;14.50;6.07;;;;;;;19.96;69.50;94697.78;4990445;28;20207;-75
2022/08/06 04:01:14;;;;;;;10.05;5.68;;;;;;;20.09;69.60;94706.25;5007988;28;20185;-75
2022/08/06 04:03:40;;;;;;;10.57;7.03;;;;;;;20.18;69.43;94705.44;5009596;28;20169;-75
2022/08/06 04:06:11;;;;;;;12.85;7.43;;;;;;;20.28;68.57;94709.94;5009417;28;20173;-75
2022/08/06 04:08:39;;;;;;;11.82;6.95;;;;;;;20.38;69.00;94714.47;5010755;28;20168;-75
2022/08/06 04:11:05;;;;;;;14.80;6.03;;;;;;;20.47;68.13;94712.81;5013160;28;20294;-75
2022/08/06 04:13:31;;;;;;;14.88;7.10;;;;;;;20.51;68.17;94705.81;5011730;28;20172;-74
2022/08/06 04:15:57;;;;;;;8.00;4.82;;;;;;;20.73;67.42;94721.50;4996112;28;20205;-74
2022/08/06 04:18:28;;;;;;;9.50;6.03;;;;;;;20.89;67.63;94731.00;4994668;28;20328;-75
2022/08/06 04:21:00;;;;;;;11.85;6.00;;;;;;;21.01;67.95;94724.25;5012936;28;20639;-75
2022/08/06 04:23:25;;;;;;;11.85;6.65;;;;;;;21.03;67.32;94699.84;5013318;28;20177;-75
2022/08/06 04:25:56;;;;;;;14.02;6.65;;;;;;;21.37;66.49;94723.97;5012962;28;20179;-75
2022/08/06 04:28:24;;;;;;;10.50;5.75;;;;;;;21.59;64.88;94734.25;5011719;28;20184;-75
2022/08/06 04:30:50;;;;;;;7.60;4.90;;;;;;;21.81;63.45;94729.97;5011276;28;20671;-75
2022/08/06 04:33:20;;;;;;;13.82;5.75;;;;;;;22.07;62.91;94733.22;5013158;28;21159;-75
2022/08/06 04:35:47;;;;;;;23.20;11.77;;;;;;;22.46;61.95;94733.03;5012852;28;20207;-75
2022/08/06 04:38:14;;;;;;;23.58;14.13;;;;;;;22.86;60.00;94733.59;4994434;28;20173;-75
2022/08/06 04:40:41;;;;;;;11.77;8.10;;;;;;;23.17;58.44;94709.78;4993024;28;20181;-75
2022/08/06 04:43:09;;;;;;;6.40;4.95;;;;;;;23.75;58.02;94742.41;4975921;28;20193;-75
2022/08/06 04:45:38;;;;;;;16.77;6.28;;;;;;;24.13;56.97;94745.72;5001305;28;20176;-75
2022/08/06 04:48:07;;;;;;;6.75;5.80;;;;;;;24.53;55.57;94746.84;5001746;28;20177;-75
2022/08/06 04:50:34;;;;;;;12.60;6.13;;;;;;;24.95;54.72;94740.31;4997716;28;20191;-75
2022/08/06 04:53:07;;;;;;;14.65;5.70;;;;;;;25.42;53.75;94747.06;5012321;28;20259;-75
2022/08/06 04:55:33;;;;;;;10.82;7.03;;;;;;;25.85;52.12;94744.66;5012397;28;20284;-75
2022/08/06 04:58:03;;;;;;;767.30;494.92;;;;;;;26.28;49.81;94750.28;5008799;28;20315;-75
2022/08/06 05:00:33;;;;;;;93.72;28.52;;;;;;;26.81;47.15;94754.69;4996303;28;20219;-75
2022/08/06 05:02:59;;;;;;;19.55;11.52;;;;;;;27.25;45.60;94761.75;5006456;28;20172;-75
2022/08/06 05:05:25;;;;;;;8.57;6.10;;;;;;;27.60;44.60;94740.91;5008503;28;20612;-75
2022/08/06 05:07:53;;;;;;;7.22;5.25;;;;;;;28.18;43.79;94755.00;5008387;28;20567;-75
2022/08/06 05:10:21;;;;;;;11.73;7.80;;;;;;;28.69;43.11;94759.38;5010766;28;20184;-75
2022/08/06 05:12:51;;;;;;;9.52;5.80;;;;;;;29.05;42.20;94753.44;5013729;28;20183;-75
2022/08/06 05:15:31;;;;;;;8.43;4.63;;;;;;;29.46;41.03;94742.63;5011515;28;20283;-74
2022/08/06 05:18:29;;;;;;;8.85;4.75;;;;;;;30.14;39.90;94762.09;4997246;28;20235;-75
2022/08/06 05:20:56;;;;;;;10.95;6.65;;;;;;;30.67;38.18;94754.91;5011274;28;20247;-77
2022/08/06 05:23:35;;;;;;;5.70;4.00;;;;;;;31.07;37.18;94753.09;4997580;28;20676;-78
2022/08/06 05:26:02;;;;;;;8.02;4.15;;;;;;;31.69;36.67;94765.41;4985405;28;20203;-78
2022/08/06 05:28:27;;;;;;;7.18;4.10;;;;;;;32.20;35.42;94757.44;5003929;28;20187;-78
2022/08/06 05:30:53;;;;;;;8.38;4.32;;;;;;;32.74;34.90;94760.38;5009191;28;20233;-78
2022/08/06 05:33:44;;;;;;;6.13;3.90;;;;;;;33.18;32.81;94752.03;4994922;28;20189;-78
2022/08/06 05:36:12;;;;;;;6.40;4.55;;;;;;;33.40;32.33;94758.75;4982428;28;20299;-77
2022/08/06 05:38:39;;;;;;;7.00;4.57;;;;;;;33.79;32.03;94756.84;5005163;28;20173;-78
2022/08/06 05:41:06;;;;;;;7.22;4.18;;;;;;;34.12;31.63;94767.22;5006332;28;20254;-78
2022/08/06 05:43:32;;;;;;;7.07;4.40;;;;;;;34.50;31.07;94761.69;5001865;28;20219;-79
2022/08/06 05:46:01;;;;;;;11.05;4.82;;;;;;;34.83;30.38;94739.19;5004161;28;20271;-79
2022/08/06 05:48:31;;;;;;;4.93;4.32;;;;;;;35.31;30.17;94764.94;4999692;28;20577;-80
2022/08/06 05:51:02;;;;;;;6.60;4.40;;;;;;;35.41;29.78;94771.72;4999613;28;20181;-79
2022/08/06 05:53:41;;;;;;;9.80;4.78;;;;;;;35.66;28.92;94766.56;5005547;28;20188;-78
2022/08/06 05:56:12;;;;;;;14.57;4.38;;;;;;;35.67;29.73;94757.19;5005944;28;20206;-77
2022/08/06 05:58:54;;;;;;;8.55;4.75;;;;;;;35.65;29.02;94762.22;5006887;28;20227;-78
2022/08/06 06:01:20;;;;;;;8.15;6.00;;;;;;;35.49;29.00;94752.25;4989188;28;20644;-78
2022/08/06 06:03:47;;;;;;;6.63;4.07;;;;;;;35.34;29.48;94739.56;4989926;28;20185;-78
2022/08/06 06:06:12;;;;;;;7.28;5.03;;;;;;;34.96;29.10;94742.50;4995206;28;20259;-78
2022/08/06 06:08:38;;;;;;;8.52;5.57;;;;;;;34.14;30.79;94752.06;5009735;28;20256;-78
2022/08/06 06:11:07;;;;;;;7.38;4.55;;;;;;;33.92;31.70;94748.13;4992791;28;20727;-77
2022/08/06 06:13:33;;;;;;;9.43;4.80;;;;;;;33.66;32.70;94735.09;4989552;28;20231;-78
2022/08/06 06:16:17;;;;;;;8.38;4.53;;;;;;;34.01;31.71;94751.41;4990476;28;20239;-78
2022/08/06 06:19:33;;;;;;;12.82;6.43;;;;;;;34.02;31.87;94752.22;4990549;28;20231;-77
2022/08/06 06:22:03;;;;;;;7.60;6.32;;;;;;;33.91;32.17;94749.28;4992145;28;20283;-78
2022/08/06 06:24:52;;;;;;;10.23;5.00;;;;;;;33.91;32.16;94734.81;5009992;28;20663;-78
2022/08/06 06:27:46;;;;;;;6.47;4.28;;;;;;;33.96;32.63;94726.34;5010250;28;20570;-78
2022/08/06 06:30:33;;;;;;;6.65;4.47;;;;;;;34.00;31.34;94744.38;5009601;28;20193;-76
2022/08/06 06:33:45;;;;;;;8.15;4.47;;;;;;;33.36;32.10;94741.53;5009960;28;20718;-76
2022/08/06 06:36:24;;;;;;;10.00;4.38;;;;;;;32.76;34.63;94746.41;5009164;28;20297;-76
2022/08/06 06:39:16;;;;;;;6.45;5.55;;;;;;;32.91;33.52;94737.38;5009913;28;20248;-77
2022/08/06 06:41:54;;;;;;;8.15;5.00;;;;;;;32.81;33.35;94735.19;5009673;28;20724;-76
2022/08/06 06:44:37;;;;;;;6.18;3.90;;;;;;;32.77;34.36;94724.22;5009808;28;20176;-76
2022/08/06 06:47:18;;;;;;;7.18;4.90;;;;;;;32.90;33.71;94735.81;5009757;28;20172;-76
2022/08/06 06:49:48;;;;;;;7.75;4.50;;;;;;;32.65;33.84;94723.50;5009694;28;20180;-76
2022/08/06 06:52:22;;;;;;;7.75;4.40;;;;;;;32.82;35.04;94728.59;5009591;28;20180;-76
2022/08/06 06:54:57;;;;;;;6.20;4.80;;;;;;;32.57;34.10;94726.06;5009505;28;20196;-76
2022/08/06 06:57:31;;;;;;;7.50;4.85;;;;;;;32.27;34.41;94707.78;5009499;28;20182;-76
2022/08/06 07:00:01;;;;;;;7.20;3.72;;;;;;;32.48;35.12;94717.28;5009981;28;20184;-76
2022/08/06 07:02:31;;;;;;;8.10;4.20;;;;;;;32.75;33.99;94723.00;5009432;28;20234;-76
2022/08/06 07:04:57;;;;;;;8.90;3.90;;;;;;;32.97;34.48;94720.38;5009646;28;20165;-76
2022/08/06 07:07:24;;;;;;;12.93;4.82;;;;;;;32.81;33.39;94721.56;4987405;28;20672;-76
2022/08/06 07:09:54;;;;;;;10.90;3.88;;;;;;;32.87;34.12;94722.88;4993185;28;20697;-76
2022/08/06 07:12:23;;;;;;;7.35;4.40;;;;;;;33.21;33.64;94719.34;5003723;28;20240;-76
2022/08/06 07:14:50;;;;;;;9.65;4.00;;;;;;;33.12;33.02;94715.25;4996662;28;20197;-76
2022/08/06 07:17:18;;;;;;;8.10;4.13;;;;;;;32.84;34.27;94710.75;4999301;28;20663;-76
2022/08/06 07:19:46;;;;;;;10.57;3.90;;;;;;;32.74;33.92;94710.50;5002499;28;20211;-75
2022/08/06 07:22:13;;;;;;;6.80;4.00;;;;;;;32.67;33.79;94711.09;4993258;28;20173;-76
2022/08/06 07:24:41;;;;;;;9.27;3.92;;;;;;;32.91;33.69;94710.09;4991269;28;20181;-75
2022/08/06 07:27:08;;;;;;;6.50;3.53;;;;;;;32.87;33.41;94701.84;5009266;28;20180;-77
2022/08/06 07:29:35;;;;;;;7.03;3.72;;;;;;;33.07;34.38;94707.31;4988458;28;20176;-75
2022/08/06 07:32:01;;;;;;;4.97;3.60;;;;;;;33.17;33.57;94693.91;5002460;28;20208;-75
2022/08/06 07:34:27;;;;;;;14.52;4.30;;;;;;;33.09;33.29;94700.38;5004690;28;20207;-76
2022/08/06 07:36:54;;;;;;;5.40;3.97;;;;;;;32.95;33.27;94675.53;4998129;28;21830;-75
2022/08/06 07:39:39;;;;;;;8.15;4.10;;;;;;;33.11;34.42;94702.75;4998808;28;20184;-76
2022/08/06 07:42:11;;;;;;;5.32;3.60;;;;;;;33.19;32.94;94683.44;5001568;28;20180;-76
2022/08/06 07:44:38;;;;;;;5.63;3.80;;;;;;;32.80;34.13;94676.34;5006246;28;20207;-76
2022/08/06 07:47:06;;;;;;;7.95;4.20;;;;;;;32.68;35.16;94687.34;5002533;28;20185;-76
2022/08/06 07:49:41;;;;;;;9.82;4.05;;;;;;;33.38;34.69;94685.41;5004799;28;20268;-76
2022/08/06 07:52:09;;;;;;;7.30;4.28;;;;;;;33.93;32.33;94689.59;5009199;28;20180;-76
2022/08/06 07:54:36;;;;;;;4.20;3.47;;;;;;;34.02;32.66;94675.69;5009527;28;20243;-76
2022/08/06 07:57:02;;;;;;;5.47;3.50;;;;;;;34.42;31.76;94686.16;5005630;28;20184;-76
2022/08/06 07:59:29;;;;;;;8.48;3.63;;;;;;;34.88;31.26;94694.28;5005576;28;20176;-75
2022/08/06 08:01:55;;;;;;;7.43;3.83;;;;;;;35.15;30.63;94691.16;5006150;28;20208;-78
2022/08/06 08:07:06;;;;;;;8.13;3.92;;;;;;;33.64;32.36;94669.13;5007068;28;20246;-76
2022/08/06 08:09:35;;;;;;;6.68;3.90;;;;;;;32.91;33.95;94682.81;4994611;28;20211;-76
2022/08/06 08:12:01;;;;;;;4.45;3.70;;;;;;;32.78;33.54;94679.41;5002568;28;20332;-76
2022/08/06 08:14:28;;;;;;;5.13;3.60;;;;;;;33.06;33.72;94684.69;5006916;28;20193;-76
2022/08/06 08:16:54;;;;;;;6.63;4.00;;;;;;;32.95;33.09;94683.72;5007511;28;20667;-76
2022/08/06 08:19:33;;;;;;;5.85;3.35;;;;;;;32.83;35.17;94681.09;5007250;28;20168;-77
2022/08/06 08:22:05;;;;;;;6.65;3.78;;;;;;;32.76;34.17;94681.72;5006493;28;20172;-78
2022/08/06 08:24:32;;;;;;;4.75;3.00;;;;;;;33.17;33.64;94680.28;5010903;28;20227;-79
2022/08/06 08:26:59;;;;;;;7.45;2.97;;;;;;;33.46;32.80;94675.41;5011497;28;20168;-78
2022/08/06 08:29:24;;;;;;;5.68;2.90;;;;;;;33.25;32.16;94671.09;5007857;28;20196;-78
2022/08/06 08:31:50;;;;;;;5.63;3.58;;;;;;;33.10;32.91;94658.28;5004931;28;20244;-78
2022/08/06 08:34:16;;;;;;;6.97;3.67;;;;;;;33.53;32.37;94656.44;5010220;28;20184;-78
2022/08/06 08:36:41;;;;;;;4.63;3.20;;;;;;;34.34;31.74;94662.56;5007323;28;20671;-78
2022/08/06 08:39:07;;;;;;;8.40;3.33;;;;;;;35.07;29.75;94678.53;5009883;28;20636;-78
2022/08/06 08:42:02;;;;;;;4.93;3.75;;;;;;;35.23;29.58;94674.81;5011478;28;20191;-78
2022/08/06 08:44:28;;;;;;;8.02;3.70;;;;;;;35.50;28.56;94674.41;5009457;28;20699;-78
2022/08/06 08:46:58;;;;;;;4.45;3.60;;;;;;;35.51;28.18;94683.41;5010127;28;20188;-78
2022/08/06 08:49:50;;;;;;;7.20;3.13;;;;;;;35.16;28.59;94681.00;5010076;28;20234;-78
2022/08/06 08:52:38;;;;;;;4.00;2.85;;;;;;;35.08;29.22;94671.13;5010669;28;20965;-78
2022/08/06 08:55:08;;;;;;;4.05;3.30;;;;;;;34.91;29.60;94661.50;5005752;28;20563;-78
2022/08/06 08:57:35;;;;;;;5.97;3.22;;;;;;;34.99;30.23;94659.66;5007707;28;20183;-78
2022/08/06 09:00:02;;;;;;;5.50;3.47;;;;;;;35.00;28.56;94661.22;5004265;28;20662;-78
2022/08/06 09:02:28;;;;;;;3.50;2.70;;;;;;;34.79;30.10;94678.13;5004969;28;20656;-78
2022/08/06 09:04:54;;;;;;;5.00;3.10;;;;;;;34.75;28.84;94661.69;5009356;28;20308;-78
2022/08/06 09:07:20;;;;;;;4.05;2.80;;;;;;;34.63;28.78;94650.91;5006862;28;20268;-78
2022/08/06 09:09:46;;;;;;;3.42;3.10;;;;;;;34.12;30.38;94655.16;5008405;28;20190;-78
2022/08/06 09:12:11;;;;;;;3.85;2.95;;;;;;;33.87;31.19;94671.13;5005062;28;22122;-78
2022/08/06 09:14:37;;;;;;;3.78;3.03;;;;;;;33.74;30.48;94659.56;5006752;28;20181;-78
2022/08/06 09:17:05;;;;;;;5.10;3.33;;;;;;;33.67;30.79;94640.31;5006752;28;20181;-78
2022/08/06 09:19:32;;;;;;;7.80;3.50;;;;;;;33.96;30.70;94652.56;5010064;28;20181;-78
2022/08/06 09:21:58;;;;;;;4.57;3.22;;;;;;;33.83;30.66;94643.75;5004607;28;20186;-78
2022/08/06 09:24:25;;;;;;;3.75;3.38;;;;;;;33.77;29.92;94650.66;5003904;28;20547;-78
2022/08/06 09:27:11;;;;;;;3.70;2.88;;;;;;;33.89;29.64;94650.50;5005190;28;20184;-78
2022/08/06 09:29:49;;;;;;;3.92;3.00;;;;;;;33.73;29.63;94638.91;5010010;28;20259;-78
2022/08/06 09:32:40;;;;;;;4.40;2.75;;;;;;;33.99;30.28;94649.09;5003375;28;20176;-78
2022/08/06 09:35:27;;;;;;;3.83;3.00;;;;;;;33.46;30.61;94648.13;5006238;28;20196;-78
2022/08/06 09:38:02;;;;;;;3.38;3.08;;;;;;;33.28;31.13;94642.31;5004523;28;20613;-78
2022/08/06 09:40:27;;;;;;;5.25;2.70;;;;;;;33.30;30.20;94643.50;5009595;28;20175;-78
2022/08/06 09:42:53;;;;;;;5.90;2.78;;;;;;;33.23;30.03;94627.00;5006077;28;20273;-78
2022/08/06 09:45:24;;;;;;;4.68;2.90;;;;;;;33.31;29.36;94642.34;5007056;28;20307;-78
2022/08/06 09:48:01;;;;;;;4.55;2.70;;;;;;;33.28;30.21;94645.03;5005983;28;20843;-78
2022/08/06 09:50:45;;;;;;;3.75;2.60;;;;;;;33.46;30.22;94634.47;5006745;28;20266;-78
2022/08/06 09:53:12;;;;;;;5.45;2.80;;;;;;;33.78;29.88;94643.25;5006561;28;20195;-78
2022/08/06 09:55:38;;;;;;;8.63;3.22;;;;;;;33.65;29.38;94637.94;5008947;28;20299;-78
2022/08/06 09:58:04;;;;;;;5.50;2.92;;;;;;;33.41;29.81;94643.72;5005420;28;20346;-78
2022/08/06 10:00:33;;;;;;;4.40;2.80;;;;;;;33.39;29.59;94642.50;5007415;28;20243;-78
2022/08/06 10:03:09;;;;;;;7.35;2.80;;;;;;;33.11;30.72;94638.03;5009719;28;20180;-78
2022/08/06 10:05:35;;;;;;;3.33;2.88;;;;;;;33.06;30.61;94634.78;5003740;28;20173;-78
2022/08/06 10:08:09;;;;;;;3.95;2.80;;;;;;;32.98;30.33;94637.38;5004066;28;20199;-79
2022/08/06 10:10:47;;;;;;;2.72;2.45;;;;;;;32.77;30.82;94642.41;5008994;28;20307;-79
2022/08/06 10:13:26;;;;;;;3.20;2.90;;;;;;;32.46;31.18;94582.47;5009470;28;20270;-78
2022/08/06 10:15:55;;;;;;;3.58;3.00;;;;;;;32.92;31.60;94618.94;5005942;28;20192;-79
2022/08/06 10:18:49;;;;;;;3.00;2.70;;;;;;;33.07;31.77;94628.97;5008864;28;20178;-79
2022/08/06 10:21:18;;;;;;;3.40;2.97;;;;;;;33.20;31.27;94624.97;4978262;28;20280;-79
2022/08/06 10:23:49;;;;;;;5.15;2.83;;;;;;;33.39;31.73;94626.13;5004967;28;20267;-78
2022/08/06 10:26:24;;;;;;;3.72;2.60;;;;;;;33.13;30.56;94589.34;5001242;28;20169;-79
2022/08/06 10:28:52;;;;;;;4.32;2.90;;;;;;;33.47;31.79;94627.84;4990571;28;20176;-79
2022/08/06 10:31:18;;;;;;;3.45;2.85;;;;;;;33.62;30.07;94622.28;5005683;28;20676;-78
2022/08/06 10:34:04;;;;;;;6.93;2.90;;;;;;;33.48;31.21;94618.47;5002401;28;20180;-79
2022/08/06 10:36:40;;;;;;;6.82;2.90;;;;;;;33.44;29.62;94612.19;5002560;28;20223;-78
2022/08/06 10:39:06;;;;;;;5.57;2.80;;;;;;;33.67;30.23;94623.91;5009269;28;20176;-79
2022/08/06 10:41:34;;;;;;;5.18;2.80;;;;;;;33.13;29.83;94591.28;5007357;28;20164;-78
2022/08/06 10:44:02;;;;;;;3.92;2.63;;;;;;;33.11;30.64;94612.69;5004946;28;20176;-80
2022/08/06 10:46:28;;;;;;;5.60;3.22;;;;;;;33.13;30.81;94619.34;5004315;28;20205;-79
2022/08/06 10:48:54;;;;;;;3.92;2.60;;;;;;;33.07;30.90;94620.00;5011191;28;20176;-80
2022/08/06 10:51:21;;;;;;;3.22;2.92;;;;;;;33.00;29.76;94626.13;5003787;28;20587;-81
2022/08/06 10:53:47;;;;;;;9.25;3.42;;;;;;;32.72;31.50;94585.38;5010482;28;20270;-80
2022/08/06 10:56:18;;;;;;;3.38;2.92;;;;;;;32.73;31.32;94599.81;5004482;28;20196;-80
2022/08/06 10:58:44;;;;;;;3.90;2.42;;;;;;;32.47;31.05;94573.94;5004785;28;20194;-80
2022/08/06 11:01:23;;;;;;;4.13;3.13;;;;;;;32.68;30.89;94613.72;5005199;28;20176;-80
2022/08/06 11:03:58;;;;;;;3.72;2.65;;;;;;;32.63;31.39;94609.31;5003148;28;20204;-80
2022/08/06 11:06:44;;;;;;;5.68;2.63;;;;;;;32.60;31.13;94607.31;5007742;28;20180;-79
2022/08/06 11:09:35;;;;;;;7.45;3.55;;;;;;;32.71;31.05;94607.56;4988636;28;20204;-80
2022/08/06 11:12:16;;;;;;;3.28;2.83;;;;;;;32.89;30.60;94609.53;5003904;28;20853;-80
2022/08/06 11:14:44;;;;;;;3.08;2.80;;;;;;;32.80;31.22;94595.31;5000723;28;20690;-80
2022/08/06 11:17:10;;;;;;;5.97;2.70;;;;;;;32.22;32.04;94471.75;5002099;28;20234;-80
2022/08/06 11:19:47;;;;;;;5.80;3.42;;;;;;;32.48;31.27;94460.22;5003252;28;20183;-81
2022/08/06 11:22:31;;;;;;;4.30;2.50;;;;;;;33.53;29.64;94599.09;4990098;28;20184;-80
2022/08/06 11:25:02;;;;;;;4.20;2.60;;;;;;;32.85;29.60;94518.66;5009111;28;20263;-80
2022/08/06 11:27:50;;;;;;;5.13;3.03;;;;;;;33.37;29.59;94598.41;5006226;28;20197;-80
2022/08/06 11:30:16;;;;;;;5.13;2.85;;;;;;;32.91;29.22;94530.06;5009695;28;20180;-79
2022/08/06 11:32:44;;;;;;;3.33;2.72;;;;;;;33.09;30.03;94546.75;5009782;28;20652;-79
2022/08/06 11:35:35;;;;;;;3.08;2.78;;;;;;;33.36;29.84;94594.09;5009716;28;20676;-80
2022/08/06 11:38:38;;;;;;;4.43;2.75;;;;;;;33.53;30.04;94597.16;4992855;28;20659;-80
2022/08/06 11:41:09;;;;;;;7.13;3.38;;;;;;;33.41;29.64;94544.63;4995710;28;20238;-80
2022/08/06 11:43:38;;;;;;;4.78;3.40;;;;;;;33.81;29.86;94599.63;5009577;28;20193;-80
2022/08/06 11:46:26;;;;;;;3.97;2.92;;;;;;;33.77;29.26;94593.28;5006753;28;20172;-79
2022/08/06 11:49:02;;;;;;;3.67;3.35;;;;;;;33.63;29.22;94587.56;4994806;28;20192;-79
2022/08/06 11:51:58;;;;;;;5.53;4.03;;;;;;;33.65;30.38;94587.97;5008844;28;20852;-79
2022/08/06 11:54:37;;;;;;;3.58;2.85;;;;;;;33.71;28.61;94595.53;4996999;28;20198;-79
2022/08/06 11:57:07;;;;;;;5.40;3.60;;;;;;;33.76;28.51;94591.72;5006556;28;20176;-79
2022/08/06 11:59:37;;;;;;;4.03;3.63;;;;;;;33.76;29.10;94588.19;5006436;28;20181;-79
2022/08/06 12:02:06;;;;;;;4.45;3.58;;;;;;;32.98;29.06;94445.59;5010583;28;20188;-79
2022/08/06 12:04:42;;;;;;;5.72;3.35;;;;;;;33.93;29.29;94588.50;5008057;28;20699;-79
2022/08/06 12:07:30;;;;;;;3.88;3.00;;;;;;;33.93;28.93;94580.28;5010760;28;20180;-79
2022/08/06 12:10:01;;;;;;;7.85;3.35;;;;;;;33.90;28.05;94581.03;4984340;28;20168;-79
2022/08/06 12:12:33;;;;;;;3.80;3.35;;;;;;;33.82;27.69;94587.50;5014258;28;20228;-79
2022/08/06 12:15:28;;;;;;;5.30;3.00;;;;;;;33.67;27.86;94563.81;5014588;28;20196;-79
2022/08/06 12:17:57;;;;;;;2.97;2.78;;;;;;;33.60;27.35;94575.41;5005363;28;20176;-79
2022/08/06 12:20:40;;;;;;;4.53;3.30;;;;;;;33.57;27.99;94567.94;5010251;28;20227;-78
2022/08/06 12:23:10;;;;;;;3.50;3.20;;;;;;;33.70;27.81;94568.56;5000915;28;20196;-79
2022/08/06 12:25:39;;;;;;;3.65;3.33;;;;;;;33.76;28.24;94575.31;5014196;28;20224;-79
2022/08/06 12:28:09;;;;;;;6.05;3.20;;;;;;;33.66;28.39;94571.22;4999798;28;20196;-79
2022/08/06 12:30:45;;;;;;;3.78;3.30;;;;;;;33.19;28.50;94495.13;5002097;28;20199;-79